Terminal Aerodrome Forecast
Issued by NWS

Home | Current Version | Previous Version | Graphics & Text | Print | Product List | Glossary On
Versions: 1 2 3 4 5 6 7 8 9 10 11 12 13 14 15 16 17 18 19 20 21 22 23 24 25 26 27 28 29 30 31 32 33 34 35 36 37 38
000
FTUS43 KGRB 151140 AAA
TAFATW
TAF AMD
KATW 151140Z 1512/1612 11005KT 1 1/2SM -SN BKN015 OVC025
     FM151300 07006KT 2SM -SN OVC015
      TEMPO 1513/1517 1SM -SN
     FM160000 02008KT 4SM -SN OVC018
     FM160400 01010G15KT P6SM -SN OVC015
     FM160800 36010KT P6SM OVC015=

USA.gov is the U.S. government's official web portal to all federal, state and local government web resources and services.